createdAt,value
2023-03-06T00:01:49.857Z,97839.80
2023-03-06T00:04:58.381Z,97842.20
2023-03-06T00:08:06.895Z,97841.20
2023-03-06T00:11:15.677Z,97847.60
2023-03-06T00:14:23.432Z,97840.60
2023-03-06T00:17:32.011Z,97834.40
2023-03-06T00:20:43.121Z,97832.60
2023-03-06T00:23:51.091Z,97830.20
2023-03-06T00:26:58.808Z,97832.00
2023-03-06T00:30:08.168Z,97825.80
2023-03-06T00:33:16.111Z,97821.40
2023-03-06T00:36:24.150Z,97817.00
2023-03-06T00:39:31.958Z,97821.20
2023-03-06T00:42:40.020Z,97819.00
2023-03-06T00:45:47.869Z,97814.40
2023-03-06T00:48:55.933Z,97813.40
2023-03-06T00:52:03.765Z,97808.60
2023-03-06T00:55:14.146Z,97808.60
2023-03-06T00:58:21.837Z,97805.40
2023-03-06T01:23:04.570Z,97791.60
2023-03-06T01:26:11.002Z,97786.80
2023-03-06T01:29:15.704Z,97784.60
2023-03-06T01:32:21.460Z,97775.60
2023-03-06T01:35:27.057Z,97774.40
2023-03-06T01:38:31.930Z,97773.40
2023-03-06T01:41:37.064Z,97777.60
2023-03-06T01:45:05.433Z,97778.20
2023-03-06T01:48:09.995Z,97778.80
2023-03-06T01:51:16.090Z,97775.80
2023-03-06T01:54:27.406Z,97775.40
2023-03-06T01:57:36.472Z,97782.40
2023-03-06T02:00:41.040Z,97773.00
2023-03-06T02:03:46.800Z,97770.80
2023-03-06T02:06:51.791Z,97769.60
2023-03-06T02:09:56.359Z,97773.80
2023-03-06T02:13:01.786Z,97769.60
2023-03-06T02:16:10.699Z,97770.20
2023-03-06T02:19:32.637Z,97764.40
2023-03-06T02:22:47.780Z,97764.00
2023-03-06T02:25:54.279Z,97762.00
2023-03-06T02:28:59.732Z,97762.80
2023-03-06T02:32:05.152Z,97770.00
2023-03-06T02:35:21.510Z,97771.80
2023-03-06T02:38:33.952Z,97773.20
2023-03-06T02:41:38.709Z,97764.00
2023-03-06T02:44:44.043Z,97761.80
2023-03-06T02:47:49.123Z,97767.20
2023-03-06T02:50:54.004Z,97768.20
2023-03-06T02:53:58.588Z,97765.80
2023-03-06T02:57:03.693Z,97768.80
2023-03-06T03:00:11.931Z,97764.80
2023-03-06T03:03:17.434Z,97772.00
2023-03-06T03:06:22.221Z,97770.80
2023-03-06T03:09:27.755Z,97772.40
2023-03-06T03:12:32.821Z,97765.60
2023-03-06T03:15:38.599Z,97761.20
2023-03-06T03:18:47.028Z,97759.80
2023-03-06T03:21:51.723Z,97760.00
2023-03-06T03:24:56.978Z,97760.60
2023-03-06T03:28:01.556Z,97754.00
2023-03-06T03:31:08.734Z,97751.60
2023-03-06T03:34:13.363Z,97755.20
2023-03-06T03:37:17.761Z,97749.40
2023-03-06T03:40:22.616Z,97752.60
2023-03-06T03:43:27.349Z,97746.80
2023-03-06T03:46:32.175Z,97743.00
2023-03-06T03:49:37.125Z,97746.20
2023-03-06T03:52:42.394Z,97740.80
2023-03-06T03:55:49.034Z,97745.40
2023-03-06T03:58:54.716Z,97744.40
2023-03-06T04:01:59.511Z,97744.60
2023-03-06T04:05:05.292Z,97745.60
2023-03-06T04:08:10.019Z,97746.60
2023-03-06T04:11:14.503Z,97748.60
2023-03-06T04:14:19.149Z,97754.20
2023-03-06T04:17:23.790Z,97752.80
2023-03-06T04:20:28.891Z,97746.80
2023-03-06T04:23:33.838Z,97748.40
2023-03-06T04:26:38.322Z,97749.80
2023-03-06T04:29:42.936Z,97745.20
2023-03-06T04:32:47.886Z,97741.00
2023-03-06T04:35:52.540Z,97742.00
2023-03-06T04:38:58.224Z,97741.80
2023-03-06T04:42:03.173Z,97745.00
2023-03-06T04:45:10.841Z,97746.80
2023-03-06T04:48:18.206Z,97746.80
2023-03-06T04:51:23.321Z,97738.80
2023-03-06T04:54:27.991Z,97739.20
2023-03-06T04:57:32.521Z,97735.00
2023-03-06T05:00:37.053Z,97737.00
2023-03-06T05:03:41.735Z,97740.20
2023-03-06T05:06:47.322Z,97735.60
2023-03-06T05:09:52.062Z,97730.80
2023-03-06T05:12:57.021Z,97738.00
2023-03-06T05:16:05.142Z,97740.00
2023-03-06T05:19:09.772Z,97745.00
2023-03-06T05:22:14.593Z,97743.40
2023-03-06T05:25:19.972Z,97747.20
2023-03-06T05:28:25.291Z,97742.40
2023-03-06T05:31:30.382Z,97741.40
2023-03-06T05:34:35.319Z,97744.40
2023-03-06T05:37:39.801Z,97747.60
2023-03-06T05:40:45.635Z,97748.60
2023-03-06T05:43:52.303Z,97748.00
2023-03-06T05:46:56.827Z,97740.80
2023-03-06T05:50:01.387Z,97737.00
2023-03-06T05:53:06.210Z,97742.20
2023-03-06T05:56:10.897Z,97746.00
2023-03-06T05:59:15.426Z,97748.20
2023-03-06T06:02:20.796Z,97740.80
2023-03-06T06:05:25.628Z,97741.40
2023-03-06T06:08:30.042Z,97744.60
2023-03-06T06:11:34.683Z,97743.40
2023-03-06T06:14:39.545Z,97748.60
2023-03-06T06:17:44.022Z,97749.40
2023-03-06T06:20:49.114Z,97747.20
2023-03-06T06:23:53.864Z,97751.60
2023-03-06T06:27:01.944Z,97749.40
2023-03-06T06:30:12.765Z,97753.20
2023-03-06T06:33:17.334Z,97752.00
2023-03-06T06:36:22.574Z,97754.00
2023-03-06T06:39:28.200Z,97755.60
2023-03-06T06:42:39.455Z,97753.60
2023-03-06T06:45:44.333Z,97750.00
2023-03-06T06:48:53.899Z,97748.60
2023-03-06T06:51:59.081Z,97746.60
2023-03-06T06:55:04.150Z,97747.40
2023-03-06T06:58:08.545Z,97749.00
2023-03-06T07:01:14.474Z,97751.60
2023-03-06T07:04:19.998Z,97758.80
2023-03-06T07:07:26.513Z,97764.40
2023-03-06T07:10:31.425Z,97767.60
2023-03-06T07:13:36.285Z,97765.80
2023-03-06T07:16:41.074Z,97775.00
2023-03-06T07:19:46.493Z,97779.00
2023-03-06T07:22:52.066Z,97777.20
2023-03-06T07:25:58.485Z,97777.20
2023-03-06T07:29:04.084Z,97777.40
2023-03-06T07:32:09.425Z,97776.00
2023-03-06T07:35:20.392Z,97786.00
2023-03-06T07:38:25.625Z,97788.60
2023-03-06T07:41:30.266Z,97790.60
2023-03-06T07:44:38.285Z,97794.60
2023-03-06T07:47:43.051Z,97792.80
2023-03-06T07:50:56.226Z,97791.00
2023-03-06T07:54:01.104Z,97796.80
2023-03-06T07:57:06.098Z,97793.80
2023-03-06T08:00:15.878Z,97795.20
2023-03-06T08:03:20.806Z,97794.40
2023-03-06T08:06:27.030Z,97789.00
2023-03-06T08:09:31.710Z,97791.40
2023-03-06T08:12:36.349Z,97790.00
2023-03-06T08:15:41.127Z,97794.40
2023-03-06T08:18:46.595Z,97791.60
2023-03-06T08:21:51.254Z,97793.40
2023-03-06T08:24:57.203Z,97796.00
2023-03-06T08:28:01.803Z,97788.20
2023-03-06T08:31:12.887Z,97788.00
2023-03-06T08:34:20.783Z,97790.00
2023-03-06T08:37:25.557Z,97786.00
2023-03-06T08:40:30.167Z,97794.80
2023-03-06T08:43:35.494Z,97796.80
2023-03-06T08:46:40.122Z,97793.20
2023-03-06T08:49:44.802Z,97790.20
2023-03-06T08:52:49.593Z,97782.40
2023-03-06T08:55:54.528Z,97785.20
2023-03-06T08:59:01.232Z,97783.40
2023-03-06T09:02:07.082Z,97777.60
2023-03-06T09:05:12.970Z,97772.60
2023-03-06T09:08:18.038Z,97771.80
2023-03-06T09:11:25.080Z,97776.40
2023-03-06T09:14:30.722Z,97758.20
2023-03-06T09:17:35.592Z,97752.00
2023-03-06T09:20:40.473Z,97750.60
2023-03-06T09:23:45.995Z,97748.40
2023-03-06T09:26:51.689Z,97750.00
2023-03-06T09:29:57.776Z,97745.20
2023-03-06T09:33:02.358Z,97742.60
2023-03-06T09:36:13.861Z,97737.00
2023-03-06T09:39:18.707Z,97732.00
2023-03-06T09:42:24.490Z,97736.60
2023-03-06T09:45:31.470Z,97740.80
2023-03-06T09:48:50.177Z,97736.00
2023-03-06T09:52:17.531Z,97737.80
2023-03-06T09:55:26.690Z,97733.40
2023-03-06T09:58:41.227Z,97730.40
2023-03-06T10:01:58.308Z,97739.40
2023-03-06T10:05:10.530Z,97733.80
2023-03-06T10:08:30.448Z,97736.40
2023-03-06T10:11:43.411Z,97735.60
2023-03-06T10:14:58.948Z,97733.40
2023-03-06T10:18:05.512Z,97727.60
2023-03-06T10:21:32.156Z,97728.40
2023-03-06T10:24:57.449Z,97723.40
2023-03-06T10:28:15.460Z,97715.60
2023-03-06T10:31:25.035Z,97707.00
2023-03-06T10:34:37.883Z,97707.60
2023-03-06T10:37:42.864Z,97713.40
2023-03-06T10:41:00.902Z,97710.20
2023-03-06T10:44:27.918Z,97703.20
2023-03-06T10:47:36.181Z,97698.60
2023-03-06T10:50:41.499Z,97693.60
2023-03-06T10:53:59.021Z,97684.40
2023-03-06T10:57:32.099Z,97683.20
2023-03-06T11:00:38.624Z,97669.20
2023-03-06T11:03:43.580Z,97669.40
2023-03-06T11:06:48.871Z,97667.60
2023-03-06T11:10:18.310Z,97664.20
2023-03-06T11:13:26.739Z,97651.60
2023-03-06T11:16:32.212Z,97635.80
2023-03-06T11:19:37.041Z,97627.40
2023-03-06T11:22:48.153Z,97619.80
2023-03-06T11:26:01.636Z,97615.40
2023-03-06T11:29:41.738Z,97608.20
2023-03-06T11:32:53.355Z,97606.60
2023-03-06T11:36:08.546Z,97605.00
2023-03-06T11:39:29.454Z,97595.80
2023-03-06T11:42:39.798Z,97590.20
2023-03-06T11:45:51.490Z,97587.60
2023-03-06T11:49:05.388Z,97584.40
2023-03-06T11:52:22.597Z,97576.20
2023-03-06T11:55:45.796Z,97572.60
2023-03-06T11:59:07.584Z,97567.60
2023-03-06T12:02:33.065Z,97562.40
2023-03-06T12:05:46.413Z,97559.20
2023-03-06T12:09:12.383Z,97556.00
2023-03-06T12:12:41.245Z,97553.00
2023-03-06T12:16:08.381Z,97548.60
2023-03-06T12:19:32.867Z,97546.80
2023-03-06T12:22:57.526Z,97541.20
2023-03-06T12:26:27.887Z,97542.00
2023-03-06T12:29:51.982Z,97537.60
2023-03-06T12:33:12.875Z,97531.60
2023-03-06T12:36:43.827Z,97533.80
2023-03-06T12:40:17.070Z,97526.60
2023-03-06T12:43:56.109Z,97525.20
2023-03-06T12:47:08.056Z,97526.40
2023-03-06T12:50:22.311Z,97527.20
2023-03-06T12:53:30.251Z,97526.00
2023-03-06T12:56:36.431Z,97526.00
2023-03-06T12:59:46.586Z,97520.40
2023-03-06T13:03:06.623Z,97511.60
2023-03-06T13:06:39.182Z,97509.20
2023-03-06T13:10:20.256Z,97494.60
2023-03-06T13:13:41.340Z,97490.60
2023-03-06T13:16:46.578Z,97484.20
2023-03-06T13:20:36.663Z,97482.40
2023-03-06T13:24:03.344Z,97480.20
2023-03-06T13:27:11.702Z,97478.00
2023-03-06T13:30:41.270Z,97473.40
2023-03-06T13:34:01.747Z,97477.20
2023-03-06T13:37:37.970Z,97474.80
2023-03-06T13:40:43.444Z,97469.00
2023-03-06T13:43:49.638Z,97469.40
2023-03-06T13:47:01.364Z,97471.60
2023-03-06T13:50:39.678Z,97471.00
2023-03-06T13:54:29.412Z,97465.80
2023-03-06T13:57:59.498Z,97462.00
2023-03-06T14:01:35.904Z,97453.00
2023-03-06T14:04:54.764Z,97455.80
2023-03-06T14:08:15.015Z,97447.00
2023-03-06T14:11:22.066Z,97443.80
2023-03-06T14:14:39.845Z,97440.20
2023-03-06T14:17:57.358Z,97436.20
2023-03-06T14:21:05.393Z,97432.60
2023-03-06T14:24:18.654Z,97425.80
2023-03-06T14:27:41.782Z,97426.60
2023-03-06T14:30:52.746Z,97417.60
2023-03-06T14:34:00.171Z,97416.00
2023-03-06T14:37:17.340Z,97418.60
2023-03-06T14:40:31.067Z,97418.40
2023-03-06T14:43:35.938Z,97419.00
2023-03-06T14:46:40.886Z,97424.40
2023-03-06T14:49:45.364Z,97413.80
2023-03-06T14:52:55.020Z,97414.80
2023-03-06T14:56:05.886Z,97412.00
2023-03-06T14:59:16.321Z,97410.60
2023-03-06T15:02:23.191Z,97406.80
2023-03-06T15:05:31.213Z,97408.40
2023-03-06T15:08:40.422Z,97405.20
2023-03-06T15:12:29.012Z,97409.60
2023-03-06T15:15:34.172Z,97406.00
2023-03-06T15:18:54.361Z,97399.60
2023-03-06T15:21:59.076Z,97402.60
2023-03-06T15:25:26.138Z,97403.60
2023-03-06T15:28:36.382Z,97402.40
2023-03-06T15:31:43.509Z,97395.40
2023-03-06T15:35:08.713Z,97403.20
2023-03-06T15:38:35.113Z,97408.20
2023-03-06T15:41:41.443Z,97412.20
2023-03-06T15:44:50.993Z,97411.00
2023-03-06T15:47:56.621Z,97412.80
2023-03-06T15:51:02.622Z,97419.40
2023-03-06T15:54:12.410Z,97417.20
2023-03-06T15:57:24.884Z,97425.40
2023-03-06T16:00:34.046Z,97429.60
2023-03-06T16:03:38.899Z,97434.00
2023-03-06T16:06:44.656Z,97437.40
2023-03-06T16:09:49.218Z,97440.80
2023-03-06T16:13:01.933Z,97435.00
2023-03-06T16:16:09.803Z,97422.00
2023-03-06T16:19:26.044Z,97419.80
2023-03-06T16:22:31.457Z,97417.20
2023-03-06T16:25:37.521Z,97414.20
2023-03-06T16:28:46.595Z,97415.60
2023-03-06T16:31:51.741Z,97420.60
2023-03-06T16:34:56.690Z,97425.80
2023-03-06T16:38:01.336Z,97426.60
2023-03-06T16:41:07.009Z,97428.40
2023-03-06T16:44:12.491Z,97427.40
2023-03-06T16:47:17.650Z,97423.40
2023-03-06T16:50:27.305Z,97429.00
2023-03-06T16:53:31.980Z,97437.80
2023-03-06T16:56:36.497Z,97438.00
2023-03-06T16:59:41.738Z,97436.20
2023-03-06T17:02:49.024Z,97424.60
2023-03-06T17:05:54.213Z,97426.00
2023-03-06T17:08:59.753Z,97426.20
2023-03-06T17:12:05.185Z,97421.20
2023-03-06T17:15:12.366Z,97419.20
2023-03-06T17:18:17.014Z,97426.40
2023-03-06T17:21:21.959Z,97423.20
2023-03-06T17:24:27.342Z,97423.40
2023-03-06T17:27:32.691Z,97421.00
2023-03-06T17:30:37.950Z,97418.40
2023-03-06T17:33:43.212Z,97414.40
2023-03-06T17:36:47.771Z,97422.80
2023-03-06T17:39:53.034Z,97420.80
2023-03-06T17:42:57.789Z,97423.60
2023-03-06T17:46:06.044Z,97426.60
2023-03-06T17:49:10.956Z,97428.40
2023-03-06T17:52:15.866Z,97434.60
2023-03-06T17:55:21.058Z,97434.20
2023-03-06T17:58:26.635Z,97431.00
2023-03-06T18:01:31.817Z,97433.20
2023-03-06T18:04:36.764Z,97438.60
2023-03-06T18:07:41.818Z,97433.40
2023-03-06T18:10:47.016Z,97438.40
2023-03-06T18:13:52.047Z,97444.00
2023-03-06T18:16:56.863Z,97439.00
2023-03-06T18:20:02.328Z,97437.20
2023-03-06T18:23:07.802Z,97442.00
2023-03-06T18:26:15.572Z,97438.40
2023-03-06T18:29:20.761Z,97437.80
2023-03-06T18:32:25.632Z,97433.60
2023-03-06T18:35:31.073Z,97427.40
2023-03-06T18:38:37.254Z,97412.40
2023-03-06T18:41:42.514Z,97414.00
2023-03-06T18:44:48.601Z,97414.00
2023-03-06T18:47:54.431Z,97412.60
2023-03-06T18:51:06.775Z,97411.60
2023-03-06T18:54:13.351Z,97417.80
2023-03-06T18:57:18.382Z,97414.40
2023-03-06T19:00:24.879Z,97415.40
2023-03-06T19:03:30.046Z,97413.60
2023-03-06T19:06:36.679Z,97416.00
2023-03-06T19:09:43.820Z,97419.20
2023-03-06T19:12:49.236Z,97429.60
2023-03-06T19:15:56.373Z,97424.80
2023-03-06T19:19:01.325Z,97431.60
2023-03-06T19:22:06.269Z,97426.20
2023-03-06T19:25:11.980Z,97419.00
2023-03-06T19:28:16.839Z,97416.00
2023-03-06T19:31:25.676Z,97409.00
2023-03-06T19:34:30.383Z,97405.00
2023-03-06T19:37:35.895Z,97405.80
2023-03-06T19:40:40.965Z,97397.20
2023-03-06T19:43:51.573Z,97400.40
2023-03-06T19:46:56.139Z,97401.40
2023-03-06T19:50:01.328Z,97402.60
2023-03-06T19:53:07.377Z,97403.40
2023-03-06T19:56:16.616Z,97400.40
2023-03-06T19:59:21.638Z,97393.20
2023-03-06T20:02:27.117Z,97393.40
2023-03-06T20:05:32.978Z,97396.40
2023-03-06T20:08:37.982Z,97400.60
2023-03-06T20:11:43.163Z,97406.00
2023-03-06T20:14:48.423Z,97415.20
2023-03-06T20:17:54.495Z,97410.20
2023-03-06T20:21:02.801Z,97419.60
2023-03-06T20:24:15.934Z,97427.40
2023-03-06T20:27:21.384Z,97427.00
2023-03-06T20:30:31.531Z,97429.20
2023-03-06T20:33:41.446Z,97432.40
2023-03-06T20:36:46.950Z,97420.20
2023-03-06T20:39:52.069Z,97418.80
2023-03-06T20:42:57.314Z,97419.80
2023-03-06T20:46:05.380Z,97416.20
2023-03-06T20:49:11.839Z,97415.80
2023-03-06T20:52:18.352Z,97410.00
2023-03-06T20:55:23.556Z,97414.60
2023-03-06T20:58:30.840Z,97421.20
2023-03-06T21:01:38.378Z,97416.80
2023-03-06T21:04:43.026Z,97419.20
2023-03-06T21:07:47.869Z,97411.20
2023-03-06T21:10:53.012Z,97412.80
2023-03-06T21:13:58.344Z,97420.20
2023-03-06T21:17:02.951Z,97425.40
2023-03-06T21:20:11.101Z,97431.40
2023-03-06T21:23:15.852Z,97437.40
2023-03-06T21:26:24.247Z,97438.60
2023-03-06T21:29:29.445Z,97431.80
2023-03-06T21:32:34.196Z,97437.00
2023-03-06T21:35:40.527Z,97428.20
2023-03-06T21:38:46.710Z,97436.40
2023-03-06T21:41:51.192Z,97442.80
2023-03-06T21:44:55.760Z,97442.80
2023-03-06T21:48:00.904Z,97435.60
2023-03-06T21:51:08.846Z,97431.60
2023-03-06T21:54:13.366Z,97429.80
2023-03-06T21:57:17.809Z,97431.80
2023-03-06T22:00:25.024Z,97427.00
2023-03-06T22:03:30.225Z,97428.40
2023-03-06T22:06:35.115Z,97423.60
2023-03-06T22:09:40.076Z,97430.40
2023-03-06T22:12:45.173Z,97427.80
2023-03-06T22:15:54.594Z,97426.40
2023-03-06T22:18:59.854Z,97423.40
2023-03-06T22:22:05.029Z,97425.80
2023-03-06T22:25:11.940Z,97421.20
2023-03-06T22:28:17.918Z,97418.60
2023-03-06T22:31:24.949Z,97412.40
2023-03-06T22:34:29.620Z,97412.40
2023-03-06T22:37:34.039Z,97415.20
2023-03-06T22:40:38.938Z,97414.80
2023-03-06T22:43:44.216Z,97418.20
2023-03-06T22:46:48.700Z,97415.60
2023-03-06T22:49:53.405Z,97419.20
2023-03-06T22:52:57.858Z,97414.00
2023-03-06T22:56:04.589Z,97418.00
2023-03-06T22:59:09.249Z,97419.20
2023-03-06T23:02:14.677Z,97419.40
2023-03-06T23:05:19.576Z,97416.20
2023-03-06T23:08:24.454Z,97418.20
2023-03-06T23:11:30.496Z,97425.80
2023-03-06T23:14:35.535Z,97424.40
2023-03-06T23:17:39.976Z,97418.40
2023-03-06T23:20:45.619Z,97422.40
2023-03-06T23:23:52.498Z,97424.40
2023-03-06T23:26:57.209Z,97420.80
2023-03-06T23:30:01.828Z,97424.00
2023-03-06T23:33:06.679Z,97430.20
2023-03-06T23:36:15.487Z,97429.20
2023-03-06T23:39:20.259Z,97424.20
2023-03-06T23:42:25.356Z,97425.60
2023-03-06T23:45:30.310Z,97424.00
2023-03-06T23:48:36.344Z,97423.40
2023-03-06T23:51:40.844Z,97423.40
2023-03-06T23:54:47.861Z,97427.60
2023-03-06T23:57:52.414Z,97434.60
